EDT,Max TemperatureF,Mean TemperatureF,Min TemperatureF,Max Dew PointF,MeanDew PointF,Min DewpointF,Max Humidity, Mean Humidity, Min Humidity, Max Sea Level PressureIn, Mean Sea Level PressureIn, Min Sea Level PressureIn, Max VisibilityMiles, Mean VisibilityMiles, Min VisibilityMiles, Max Wind SpeedMPH, Mean Wind SpeedMPH, Max Gust SpeedMPH,PrecipitationIn, CloudCover, Events, WindDirDegrees
2014-3-1,38,29,20,26,19,12,92,68,43,30.29,30.17,30.05,10,8,4,17,7,22,T,7,Rain,345
2014-3-2,20,15,9,18,12,4,92,80,67,30.37,30.30,30.24,10,5,0,20,12,23,0.18,6,Fog-Snow,11
2014-3-3,16,9,2,3,-2,-7,80,65,50,30.51,30.45,30.34,10,10,10,18,9,24,0.00,0,,37
2014-3-4,29,18,7,13,6,-2,69,58,46,30.41,30.30,30.21,10,10,10,10,5,14,0.00,3,,116
2014-3-5,26,21,16,19,14,7,84,70,55,30.41,30.35,30.25,10,6,1,24,13,31,T,5,Snow,63
2014-3-6,35,26,16,22,15,9,81,70,58,30.41,30.28,30.14,10,9,6,18,10,22,0.00,1,,71
2014-3-7,52,34,16,31,23,14,92,67,41,30.11,30.02,29.94,10,6,2,12,4,16,0.00,0,,211
2014-3-8,41,32,23,33,27,18,89,80,70,30.28,30.12,29.96,10,7,2,17,8,22,T,5,Snow,353
2014-3-9,43,30,17,30,24,16,100,79,57,30.31,30.17,29.95,10,8,4,16,7,23,0.00,1,,227
2014-3-10,57,47,37,41,35,30,82,68,54,29.95,29.80,29.71,10,10,8,17,9,23,0.00,1,,226
2014-3-11,64,48,32,47,38,32,100,74,48,29.70,29.66,29.60,10,7,1,20,5,24,0.00,0,Fog,21
2014-3-12,40,28,16,36,25,11,100,84,68,30.13,29.73,29.44,10,5,0,30,16,39,0.88,7,Fog-Rain-Snow,359
2014-3-13,36,23,10,26,17,9,92,74,61,30.22,30.13,30.00,10,10,10,13,5,20,0.00,2,,220
2014-3-14,57,47,36,38,33,27,79,61,43,29.98,29.83,29.70,10,10,10,30,12,40,0.00,1,,236
2014-3-15,49,40,31,32,28,23,89,68,46,30.18,30.06,29.94,10,10,10,21,8,27,0.00,0,,313
2014-3-16,31,25,19,22,12,7,69,56,42,30.25,30.19,30.13,10,10,10,25,17,36,0.00,3,,50
2014-3-17,37,26,15,24,15,4,88,69,49,30.11,29.96,29.85,10,10,10,17,9,22,0.00,2,,93
2014-3-18,51,37,22,38,31,21,88,72,56,29.94,29.85,29.72,10,10,8,21,9,26,0.00,2,,133
2014-3-19,50,42,34,43,38,25,92,78,64,30.05,29.79,29.66,10,7,2,30,15,39,0.06,7,Rain,235
2014-3-20,51,39,27,32,27,24,92,69,46,30.11,30.05,30.01,10,10,7,21,8,29,T,5,,269
2014-3-21,65,50,34,39,34,30,82,57,31,30.02,29.89,29.74,10,9,5,22,10,30,T,3,Rain,150
2014-3-22,49,40,30,38,30,25,82,68,53,30.27,30.10,29.84,10,10,10,22,10,33,0.00,6,,309
2014-3-23,35,28,21,25,18,13,85,65,45,30.40,30.35,30.27,10,10,8,18,9,24,T,6,Snow,354
2014-3-24,36,27,17,17,14,11,84,61,38,30.39,30.30,30.16,10,10,6,14,5,18,0.00,2,,292
2014-3-25,33,29,24,26,17,8,92,66,39,30.26,30.09,30.00,10,7,1,26,12,36,T,7,Snow,294
2014-3-26,40,27,14,15,11,8,88,59,29,30.39,30.28,30.15,10,10,10,14,6,18,0.00,1,,222
2014-3-27,52,43,34,42,29,13,85,60,35,30.14,29.88,29.63,10,9,5,28,12,42,0.31,8,Rain,181
2014-3-28,51,44,36,47,38,31,92,81,70,30.17,29.88,29.58,10,10,5,30,11,46,0.01,8,Rain-Thunderstorm,266
2014-3-29,39,34,28,34,30,26,96,83,70,30.25,30.14,30.09,10,7,1,20,10,25,0.06,7,Snow,7
2014-3-30,55,38,20,30,27,20,100,68,35,30.29,30.21,30.13,10,8,4,9,3,13,0.00,0,,199
2014-3-31,68,50,31,33,29,27,82,52,22,30.13,30.02,29.82,10,10,9,22,10,29,T,1,,158